Capela do Alto, Brazil
Current Conditions -  °F | °C
As of 9:00 PM on Thursday 20 Nov 2014 (Local Time) from SBKP Reporting Station
Clear Clear  
Wind Chill: 75°   Ceiling: Unl
Heat Index: 75°   Visibility: 6mi
Dew Point: 57°   Wind: 8mph
Humidity: 53%   Direction: 140°SE
Pressure: 29.97"   Gusts: NA
Location:  23.47°S, 47.75°W
Report Text: SBKP 202300Z 14007KT CAVOK 24/14 Q1015
Loading
Personal Weather Stations






























Interactive Weather Map New forecast layout! Learn more

10-Day Weather Forecast

Advertisements
Track Severe Weather on mobile